New Milford, New Jersey
Current Conditions -  °F | °C
As of 7:51 PM on Sunday 23 Nov 2014 (Local Time) from KTEB Reporting Station
Clear Clear  
Wind Chill: 50°   Ceiling: Unl
Heat Index: 50°   Visibility: 10mi
Dew Point: 30°   Wind: 0mph
Humidity: 46%   Direction: NA
Pressure: 30.1"   Gusts: NA
Location:  40.92°N, 74.03°W
Report Text: KTEB 240051Z 00000KT 10SM CLR 10/M01 A3010 RMK AO2 SLP194 T01001011
Loading
Personal Weather Stations






























Interactive Weather Map New forecast layout! Learn more

10-Day Weather Forecast

Advertisements
Track Severe Weather on mobile